Time;durP1;ratioP1;P1;durP2;ratioP2;P2;SDS_P1;SDS_P2;PMS_P1;PMS_P2;Temp;Humidity;BMP_temperature;BMP_pressure;BME280_temperature;BME280_humidity;BME280_pressure;Samples;Min_cycle;Max_cycle;Signal;HPM_P1;HPM_P2
2022/11/03 00:02:20;;;;;;;;;;;14.60;95.30;;;;;;5095364;28;19952;-87
2022/11/03 00:04:46;;;;;;;;;;;14.60;95.20;;;;;;5095207;28;20511;-87
2022/11/03 00:07:11;;;;;;;;;;;14.60;95.20;;;;;;5095137;28;19945;-87
2022/11/03 00:09:37;;;;;;;;;;;14.60;95.20;;;;;;5094858;28;19956;-87
2022/11/03 00:12:02;;;;;;;;;;;14.50;95.00;;;;;;5076930;28;19950;-87
2022/11/03 00:14:28;;;;;;;;;;;14.40;95.00;;;;;;5095005;28;19936;-87
2022/11/03 00:16:53;;;;;;;;;;;14.40;95.10;;;;;;5094608;28;20056;-88
2022/11/03 00:19:19;;;;;;;;;;;14.40;95.20;;;;;;5076683;28;19995;-87
2022/11/03 00:21:45;;;;;;;;;;;14.40;95.20;;;;;;5094682;28;20400;-87
2022/11/03 00:24:11;;;;;;;;;;;14.30;95.40;;;;;;5094792;28;19948;-87
2022/11/03 00:26:37;;;;;;;;;;;14.40;95.40;;;;;;5094750;28;19936;-87
2022/11/03 00:29:07;;;;;;;;;;;14.40;95.30;;;;;;5094494;28;19974;-87
2022/11/03 00:31:33;;;;;;;;;;;14.40;95.40;;;;;;5094431;28;19946;-87
2022/11/03 00:33:59;;;;;;;;;;;14.40;95.30;;;;;;5094737;28;19940;-87
2022/11/03 00:36:26;;;;;;;;;;;14.30;94.90;;;;;;5094592;28;19969;-87
2022/11/03 00:38:51;;;;;;;;;;;14.10;95.00;;;;;;5094538;28;20004;-87
2022/11/03 00:41:19;;;;;;;;;;;14.10;95.30;;;;;;5094365;28;20336;-87
2022/11/03 00:43:45;;;;;;;;;;;14.10;95.50;;;;;;5094276;28;19953;-87
2022/11/03 00:46:10;;;;;;;;;;;14.00;95.80;;;;;;5094383;28;19941;-87
2022/11/03 00:48:36;;;;;;;;;;;14.00;95.90;;;;;;5094698;28;19944;-87
2022/11/03 00:51:05;;;;;;;;;;;14.00;96.00;;;;;;5094084;28;20055;-88
2022/11/03 00:53:51;;;;;;;;;;;14.10;96.10;;;;;;5094208;28;20385;-87
2022/11/03 00:56:17;;;;;;;;;;;14.10;96.20;;;;;;5093427;28;19970;-87
2022/11/03 00:58:43;;;;;;;;;;;14.10;96.20;;;;;;5094202;28;19991;-87
2022/11/03 01:01:10;;;;;;;;;;;14.20;96.20;;;;;;5093993;28;20422;-88
2022/11/03 01:03:36;;;;;;;;;;;14.20;96.20;;;;;;5094191;28;19941;-88
2022/11/03 01:08:50;;;;;;;;;;;14.20;96.30;;;;;;5094360;28;19954;-88
2022/11/03 01:14:01;;;;;;;;;;;14.30;96.30;;;;;;5094292;28;20075;-87
2022/11/03 01:16:27;;;;;;;;;;;14.40;96.30;;;;;;5093833;28;20047;-87
2022/11/03 01:18:53;;;;;;;;;;;14.40;96.30;;;;;;5093887;28;19936;-87
2022/11/03 01:21:19;;;;;;;;;;;14.50;96.20;;;;;;5093614;28;19948;-88
2022/11/03 01:23:45;;;;;;;;;;;14.40;96.10;;;;;;5093930;28;20049;-87
2022/11/03 01:26:11;;;;;;;;;;;14.40;96.10;;;;;;5093646;28;19942;-87
2022/11/03 01:28:37;;;;;;;;;;;14.40;96.10;;;;;;5092892;28;19971;-88
2022/11/03 01:31:04;;;;;;;;;;;14.40;96.00;;;;;;5093475;28;19948;-87
2022/11/03 01:33:30;;;;;;;;;;;14.40;95.90;;;;;;5093584;28;19945;-88
2022/11/03 01:35:55;;;;;;;;;;;14.40;95.90;;;;;;5093812;28;19942;-88
2022/11/03 01:38:21;;;;;;;;;;;14.40;95.90;;;;;;5093607;28;20486;-87
2022/11/03 01:40:46;;;;;;;;;;;14.40;95.80;;;;;;5093212;28;19993;-87
2022/11/03 01:43:20;;;;;;;;;;;14.30;95.70;;;;;;5093411;28;19941;-87
2022/11/03 01:45:46;;;;;;;;;;;14.40;95.70;;;;;;5093510;28;19944;-87
2022/11/03 01:48:12;;;;;;;;;;;14.30;95.60;;;;;;5093478;28;19996;-87
2022/11/03 01:50:39;;;;;;;;;;;14.30;95.50;;;;;;5093156;28;19950;-87
2022/11/03 01:53:05;;;;;;;;;;;14.20;95.50;;;;;;5093219;28;19938;-88
2022/11/03 01:55:34;;;;;;;;;;;14.20;95.60;;;;;;5075295;28;19968;-87
2022/11/03 01:58:03;;;;;;;;;;;14.30;95.60;;;;;;5093237;28;19985;-87
2022/11/03 02:00:28;;;;;;;;;;;14.30;95.60;;;;;;5092918;28;19950;-87
2022/11/03 02:02:54;;;;;;;;;;;14.30;95.60;;;;;;5093184;28;19940;-87
2022/11/03 02:05:21;;;;;;;;;;;14.20;95.50;;;;;;5093477;28;19990;-87
2022/11/03 02:07:53;;;;;;;;;;;14.30;95.50;;;;;;5093239;28;19935;-87
2022/11/03 02:10:19;;;;;;;;;;;14.20;95.50;;;;;;5093027;28;19950;-87
2022/11/03 02:12:45;;;;;;;;;;;14.20;95.50;;;;;;5092901;28;19951;-87
2022/11/03 02:15:12;;;;;;;;;;;14.20;95.40;;;;;;5093092;28;19981;-87
2022/11/03 02:17:39;;;;;;;;;;;14.20;95.40;;;;;;5074798;28;19963;-87
2022/11/03 02:20:10;;;;;;;;;;;14.20;95.30;;;;;;5092867;28;20039;-87
2022/11/03 02:22:35;;;;;;;;;;;14.20;95.30;;;;;;5093067;28;19942;-87
2022/11/03 02:25:01;;;;;;;;;;;14.10;95.20;;;;;;5093034;28;20025;-87
2022/11/03 02:27:26;;;;;;;;;;;14.20;95.20;;;;;;5093057;28;19936;-87
2022/11/03 02:29:52;;;;;;;;;;;14.10;95.00;;;;;;5092319;28;20393;-87
2022/11/03 02:32:20;;;;;;;;;;;14.10;95.00;;;;;;5093001;28;20035;-87
2022/11/03 02:34:55;;;;;;;;;;;14.00;95.10;;;;;;5092999;28;19940;-87
2022/11/03 02:37:23;;;;;;;;;;;14.10;95.20;;;;;;5092492;28;19960;-87
2022/11/03 02:39:51;;;;;;;;;;;14.10;95.00;;;;;;5095835;28;19969;-87
2022/11/03 02:42:18;;;;;;;;;;;14.10;95.00;;;;;;5096675;28;19938;-87
2022/11/03 02:44:45;;;;;;;;;;;13.90;94.70;;;;;;5096583;28;20402;-86
2022/11/03 02:47:11;;;;;;;;;;;13.90;95.10;;;;;;5096269;28;20527;-87
2022/11/03 02:49:38;;;;;;;;;;;13.90;95.20;;;;;;5096553;28;19982;-87
2022/11/03 02:52:04;;;;;;;;;;;13.80;94.90;;;;;;5096359;28;20052;-87
2022/11/03 02:54:33;;;;;;;;;;;13.70;95.10;;;;;;5096523;28;19943;-87
2022/11/03 02:57:08;;;;;;;;;;;13.70;95.00;;;;;;5096398;28;20015;-87
2022/11/03 02:59:46;;;;;;;;;;;13.70;95.00;;;;;;5096306;28;19940;-87
2022/11/03 03:02:15;;;;;;;;;;;13.70;95.10;;;;;;5096345;28;19938;-87
2022/11/03 03:04:43;;;;;;;;;;;13.70;95.20;;;;;;5096290;28;19990;-87
2022/11/03 03:07:11;;;;;;;;;;;13.60;95.30;;;;;;5095957;28;19937;-87
2022/11/03 03:09:43;;;;;;;;;;;13.60;95.50;;;;;;5096249;28;20034;-87
2022/11/03 03:12:10;;;;;;;;;;;13.70;95.70;;;;;;5096168;28;19966;-87
2022/11/03 03:14:37;;;;;;;;;;;13.70;95.80;;;;;;5096149;28;19942;-87
2022/11/03 03:17:13;;;;;;;;;;;13.80;95.70;;;;;;5096027;28;19968;-87
2022/11/03 03:19:41;;;;;;;;;;;13.80;95.70;;;;;;5096587;28;20032;-87
2022/11/03 03:22:15;;;;;;;;;;;13.80;95.70;;;;;;5096020;28;19939;-87
2022/11/03 03:25:00;;;;;;;;;;;13.90;95.70;;;;;;5095959;28;19953;-87
2022/11/03 03:27:28;;;;;;;;;;;13.90;95.60;;;;;;5053876;28;20000;-87
2022/11/03 03:30:00;;;;;;;;;;;13.90;95.50;;;;;;5095735;28;19976;-87
2022/11/03 03:32:27;;;;;;;;;;;13.90;95.40;;;;;;5096044;28;19952;-87
2022/11/03 03:34:53;;;;;;;;;;;13.80;95.20;;;;;;5095883;28;19972;-87
2022/11/03 03:37:21;;;;;;;;;;;13.70;95.40;;;;;;5095567;28;19971;-87
2022/11/03 03:39:49;;;;;;;;;;;13.70;95.50;;;;;;5095399;28;20396;-87
2022/11/03 03:42:15;;;;;;;;;;;13.70;95.50;;;;;;5077512;28;19991;-87
2022/11/03 03:44:41;;;;;;;;;;;13.70;95.50;;;;;;5095537;28;19945;-87
2022/11/03 03:47:13;;;;;;;;;;;13.80;95.50;;;;;;5095400;28;19942;-87
2022/11/03 03:49:39;;;;;;;;;;;13.80;95.50;;;;;;5095358;28;19976;-87
2022/11/03 03:52:05;;;;;;;;;;;13.80;95.60;;;;;;5094599;28;19956;-87
2022/11/03 03:54:30;;;;;;;;;;;13.90;95.50;;;;;;5095327;28;20317;-87
2022/11/03 03:57:01;;;;;;;;;;;13.90;95.50;;;;;;5095464;28;20331;-87
2022/11/03 03:59:27;;;;;;;;;;;13.90;95.50;;;;;;5095019;28;19947;-87
2022/11/03 04:01:52;;;;;;;;;;;13.80;95.50;;;;;;5095112;28;19941;-87
2022/11/03 04:04:18;;;;;;;;;;;13.80;95.60;;;;;;5095092;28;19938;-87
2022/11/03 04:06:43;;;;;;;;;;;13.80;95.70;;;;;;5094847;28;19947;-87
2022/11/03 04:09:09;;;;;;;;;;;13.80;95.70;;;;;;5094957;28;19939;-87
2022/11/03 04:22:32;;;;;;;;;;;13.80;95.40;;;;;;5094791;28;19943;-87
2022/11/03 04:24:57;;;;;;;;;;;13.80;95.40;;;;;;5094716;28;19940;-87
2022/11/03 04:27:23;;;;;;;;;;;13.80;95.50;;;;;;5094416;28;19953;-87
2022/11/03 04:29:48;;;;;;;;;;;13.70;95.40;;;;;;5094508;28;19975;-87
2022/11/03 04:32:16;;;;;;;;;;;13.60;95.40;;;;;;5094662;28;19943;-87
2022/11/03 04:34:41;;;;;;;;;;;13.60;95.50;;;;;;5094587;28;19945;-87
2022/11/03 04:37:14;;;;;;;;;;;13.60;95.70;;;;;;5094206;28;19962;-87
2022/11/03 04:39:39;;;;;;;;;;;13.60;95.80;;;;;;5094428;28;19941;-87
2022/11/03 04:42:13;;;;;;;;;;;13.50;95.90;;;;;;5094721;28;19943;-87
2022/11/03 04:44:39;;;;;;;;;;;13.40;96.20;;;;;;5094383;28;20027;-87
2022/11/03 04:47:08;;;;;;;;;;;13.40;96.40;;;;;;5094149;28;20021;-86
2022/11/03 04:49:34;;;;;;;;;;;13.50;96.30;;;;;;5094186;28;19943;-87
2022/11/03 04:51:59;;;;;;;;;;;13.50;96.20;;;;;;5094079;28;20399;-87
2022/11/03 04:54:25;;;;;;;;;;;13.50;96.00;;;;;;5094135;28;20411;-87
2022/11/03 04:56:51;;;;;;;;;;;13.50;96.10;;;;;;5093779;28;20064;-87
2022/11/03 04:59:16;;;;;;;;;;;13.60;96.20;;;;;;5094061;28;20305;-87
2022/11/03 05:01:42;;;;;;;;;;;13.60;96.10;;;;;;5093478;28;19968;-87
2022/11/03 05:04:11;;;;;;;;;;;13.60;96.00;;;;;;5093631;28;19936;-87
2022/11/03 05:06:36;;;;;;;;;;;13.60;95.90;;;;;;5093763;28;19947;-87
2022/11/03 05:09:10;;;;;;;;;;;13.50;95.80;;;;;;5093722;28;20296;-87
2022/11/03 05:11:40;;;;;;;;;;;13.50;95.90;;;;;;5094451;28;19938;-87
2022/11/03 05:14:12;;;;;;;;;;;13.40;95.80;;;;;;5093816;28;19938;-86
2022/11/03 05:16:37;;;;;;;;;;;13.30;96.20;;;;;;5093446;28;19963;-87
2022/11/03 05:19:03;;;;;;;;;;;13.30;96.40;;;;;;5093721;28;20353;-87
2022/11/03 05:21:28;;;;;;;;;;;13.40;96.40;;;;;;5093704;28;20336;-87
2022/11/03 05:24:00;;;;;;;;;;;13.40;96.20;;;;;;5093590;28;19939;-87
2022/11/03 05:26:28;;;;;;;;;;;13.40;96.20;;;;;;5075095;28;19964;-87
2022/11/03 05:28:58;;;;;;;;;;;13.40;96.10;;;;;;5093344;28;20412;-87
2022/11/03 05:31:24;;;;;;;;;;;13.40;96.30;;;;;;5093557;28;20457;-87
2022/11/03 05:33:50;;;;;;;;;;;13.40;96.30;;;;;;5075352;28;20032;-87
2022/11/03 05:36:19;;;;;;;;;;;13.40;96.10;;;;;;5093158;28;19942;-87
2022/11/03 05:38:44;;;;;;;;;;;13.40;95.90;;;;;;5093420;28;19938;-87
2022/11/03 05:41:24;;;;;;;;;;;13.40;95.80;;;;;;5075270;28;20327;-87
2022/11/03 05:44:00;;;;;;;;;;;13.40;95.80;;;;;;5093341;28;19946;-87
2022/11/03 05:46:27;;;;;;;;;;;13.40;95.80;;;;;;5092985;28;19996;-86
2022/11/03 05:48:53;;;;;;;;;;;13.40;95.90;;;;;;5092584;28;20052;-86
2022/11/03 05:51:23;;;;;;;;;;;13.40;95.90;;;;;;5072961;28;20414;-87
2022/11/03 05:53:53;;;;;;;;;;;13.40;95.90;;;;;;5073007;28;19935;-87
2022/11/03 05:56:21;;;;;;;;;;;13.50;95.90;;;;;;5072963;28;19970;-87
2022/11/03 05:58:47;;;;;;;;;;;13.50;96.00;;;;;;5093270;28;20006;-87
2022/11/03 06:01:22;;;;;;;;;;;13.60;96.00;;;;;;5092581;28;20403;-87
2022/11/03 06:03:48;;;;;;;;;;;13.50;95.90;;;;;;5091854;28;19949;-87
2022/11/03 06:06:31;;;;;;;;;;;13.50;95.70;;;;;;5092424;28;19946;-87
2022/11/03 06:08:57;;;;;;;;;;;13.40;95.60;;;;;;5074441;28;19947;-87
2022/11/03 06:11:31;;;;;;;;;;;13.30;95.60;;;;;;5085315;28;19941;-87
2022/11/03 06:13:58;;;;;;;;;;;13.30;95.80;;;;;;5094045;28;20408;-87
2022/11/03 06:16:36;;;;;;;;;;;13.30;96.00;;;;;;5096283;28;20016;-87
2022/11/03 06:19:11;;;;;;;;;;;13.40;96.30;;;;;;5096333;28;20107;-87
2022/11/03 06:21:36;;;;;;;;;;;13.50;96.20;;;;;;5095248;28;19948;-87
2022/11/03 06:24:02;;;;;;;;;;;13.50;96.20;;;;;;5091045;28;20412;-87
2022/11/03 06:26:29;;;;;;;;;;;13.60;96.00;;;;;;5078841;28;19946;-87
2022/11/03 06:28:55;;;;;;;;;;;13.60;95.90;;;;;;5096774;22;20003;-87
2022/11/03 06:31:22;;;;;;;;;;;13.60;95.80;;;;;;5059028;28;20055;-87
2022/11/03 06:33:49;;;;;;;;;;;13.80;95.90;;;;;;5058525;28;19949;-87
2022/11/03 06:36:22;;;;;;;;;;;14.00;95.80;;;;;;5055056;28;20459;-87
2022/11/03 06:38:49;;;;;;;;;;;14.20;95.50;;;;;;5056403;28;19943;-87
2022/11/03 06:41:25;;;;;;;;;;;14.40;95.00;;;;;;5059428;28;19965;-87
2022/11/03 06:43:51;;;;;;;;;;;14.60;94.50;;;;;;5056709;28;19953;-87
2022/11/03 06:46:21;;;;;;;;;;;14.60;92.80;;;;;;5057107;28;20279;-87
2022/11/03 06:48:46;;;;;;;;;;;14.40;92.20;;;;;;5071592;28;19946;-87
2022/11/03 06:51:17;;;;;;;;;;;14.40;92.30;;;;;;5057606;28;20019;-87
2022/11/03 06:53:43;;;;;;;;;;;14.30;92.70;;;;;;5063891;28;19943;-87
2022/11/03 06:56:13;;;;;;;;;;;14.10;92.50;;;;;;5061581;28;19949;-87
2022/11/03 06:58:39;;;;;;;;;;;14.00;92.90;;;;;;5053492;28;19944;-87
2022/11/03 07:01:13;;;;;;;;;;;14.00;93.00;;;;;;5054413;28;19948;-87
2022/11/03 07:03:39;;;;;;;;;;;14.10;93.00;;;;;;5052016;28;19963;-87
2022/11/03 07:06:11;;;;;;;;;;;14.10;92.80;;;;;;5058786;28;20322;-87
2022/11/03 07:08:44;;;;;;;;;;;14.10;92.60;;;;;;5051226;28;19943;-87
2022/11/03 07:11:15;;;;;;;;;;;13.90;93.40;;;;;;5060294;28;19951;-87
2022/11/03 07:13:40;;;;;;;;;;;13.90;93.80;;;;;;5062733;28;19957;-87
2022/11/03 07:16:14;;;;;;;;;;;14.30;93.80;;;;;;5056689;28;19949;-87
2022/11/03 07:18:41;;;;;;;;;;;14.60;93.40;;;;;;5066978;28;20332;-87
2022/11/03 07:21:22;;;;;;;;;;;14.80;93.10;;;;;;5057492;28;19940;-87
2022/11/03 07:23:47;;;;;;;;;;;15.00;92.70;;;;;;5054881;28;19948;-87
2022/11/03 07:26:13;;;;;;;;;;;15.10;92.30;;;;;;5059459;28;19946;-87
2022/11/03 07:28:38;;;;;;;;;;;15.20;92.20;;;;;;5067416;28;19945;-87
2022/11/03 07:31:15;;;;;;;;;;;15.30;92.00;;;;;;5051314;28;19940;-87
2022/11/03 07:33:41;;;;;;;;;;;15.30;91.90;;;;;;5061620;28;19960;-87
2022/11/03 07:36:09;;;;;;;;;;;15.50;91.40;;;;;;5065081;28;20020;-87
2022/11/03 07:38:35;;;;;;;;;;;15.50;91.50;;;;;;5069917;28;20031;-87
2022/11/03 07:41:01;;;;;;;;;;;15.50;91.30;;;;;;5060402;28;20036;-87
2022/11/03 07:43:28;;;;;;;;;;;15.50;91.50;;;;;;5054712;28;19954;-87
2022/11/03 07:45:54;;;;;;;;;;;15.60;91.40;;;;;;5053938;28;19941;-87
2022/11/03 07:48:26;;;;;;;;;;;15.70;91.10;;;;;;5061595;28;20403;-87
2022/11/03 07:50:53;;;;;;;;;;;15.60;91.00;;;;;;5053378;28;19997;-87
2022/11/03 07:53:21;;;;;;;;;;;15.50;91.10;;;;;;5047086;28;19949;-87
2022/11/03 07:55:47;;;;;;;;;;;15.60;91.20;;;;;;5048781;28;19943;-87
2022/11/03 07:58:23;;;;;;;;;;;15.60;91.40;;;;;;5047289;28;19968;-87
2022/11/03 08:00:52;;;;;;;;;;;15.80;91.00;;;;;;5053000;28;20029;-87
2022/11/03 08:03:25;;;;;;;;;;;16.00;91.00;;;;;;5069078;28;19943;-87
2022/11/03 08:05:50;;;;;;;;;;;16.30;90.80;;;;;;5056466;28;19954;-87
2022/11/03 08:08:16;;;;;;;;;;;16.60;89.80;;;;;;5055688;28;19970;-87
2022/11/03 08:10:41;;;;;;;;;;;16.90;88.90;;;;;;5067255;28;19954;-87
2022/11/03 08:13:07;;;;;;;;;;;16.90;88.70;;;;;;5061255;28;19943;-87
2022/11/03 08:15:32;;;;;;;;;;;17.30;87.30;;;;;;5067720;28;19945;-87
2022/11/03 08:17:58;;;;;;;;;;;17.30;86.50;;;;;;5059198;28;19960;-87
2022/11/03 08:20:23;;;;;;;;;;;17.40;85.60;;;;;;5057670;28;19941;-87
2022/11/03 08:22:49;;;;;;;;;;;17.30;86.10;;;;;;5054820;28;19947;-87
2022/11/03 08:25:14;;;;;;;;;;;17.00;86.80;;;;;;5056797;28;19947;-86
2022/11/03 08:27:40;;;;;;;;;;;16.80;88.00;;;;;;5053020;28;20064;-87
2022/11/03 08:30:06;;;;;;;;;;;16.60;88.30;;;;;;5049693;28;19975;-87
2022/11/03 08:32:31;;;;;;;;;;;16.60;88.70;;;;;;5050945;28;19949;-87
2022/11/03 08:34:57;;;;;;;;;;;16.60;89.00;;;;;;5046230;28;19952;-87
2022/11/03 08:37:22;;;;;;;;;;;16.60;89.80;;;;;;5051710;28;20422;-87
2022/11/03 08:39:48;;;;;;;;;;;16.50;90.70;;;;;;5049052;28;19948;-87
2022/11/03 08:42:13;;;;;;;;;;;16.50;90.70;;;;;;5049752;28;19979;-87
2022/11/03 08:44:39;;;;;;;;;;;16.40;90.10;;;;;;5049948;28;20420;-87
2022/11/03 08:47:04;;;;;;;;;;;16.40;89.70;;;;;;5050361;28;19949;-87
2022/11/03 08:49:30;;;;;;;;;;;16.40;89.80;;;;;;5053831;28;19957;-87
2022/11/03 08:51:55;;;;;;;;;;;16.50;89.50;;;;;;5051857;28;19971;-87
2022/11/03 08:54:21;;;;;;;;;;;16.60;89.20;;;;;;5052506;28;20404;-87
2022/11/03 08:56:47;;;;;;;;;;;16.70;88.80;;;;;;5051389;28;19964;-87
2022/11/03 08:59:13;;;;;;;;;;;16.90;88.50;;;;;;5052884;28;19966;-87
2022/11/03 09:01:38;;;;;;;;;;;17.10;88.10;;;;;;5051981;28;20385;-87
2022/11/03 09:04:04;;;;;;;;;;;17.20;88.70;;;;;;5053417;28;19942;-87
2022/11/03 09:06:29;;;;;;;;;;;17.20;87.40;;;;;;5051304;28;19944;-87
2022/11/03 09:08:55;;;;;;;;;;;17.20;87.40;;;;;;5050409;28;19945;-87
2022/11/03 09:11:20;;;;;;;;;;;17.30;87.20;;;;;;5050732;28;20413;-87
2022/11/03 09:13:46;;;;;;;;;;;17.50;87.70;;;;;;5048313;28;20399;-87
2022/11/03 09:16:11;;;;;;;;;;;17.50;87.10;;;;;;5049261;28;19985;-87
2022/11/03 09:18:37;;;;;;;;;;;17.60;87.60;;;;;;5049713;28;20027;-86
2022/11/03 09:21:03;;;;;;;;;;;17.70;86.90;;;;;;5056901;28;20379;-87
2022/11/03 09:23:28;;;;;;;;;;;17.70;87.10;;;;;;5046481;28;19954;-87
2022/11/03 09:25:54;;;;;;;;;;;17.80;86.60;;;;;;5042135;28;20591;-86
2022/11/03 09:28:20;;;;;;;;;;;17.80;85.80;;;;;;5048054;28;20414;-87
2022/11/03 09:30:45;;;;;;;;;;;17.80;85.80;;;;;;5069428;28;20329;-87
2022/11/03 09:33:11;;;;;;;;;;;17.80;86.70;;;;;;5062480;28;20318;-87
2022/11/03 09:35:36;;;;;;;;;;;17.80;85.40;;;;;;5050910;28;19943;-87
2022/11/03 09:38:02;;;;;;;;;;;17.80;85.00;;;;;;5062603;28;19963;-87
2022/11/03 09:40:27;;;;;;;;;;;17.90;85.80;;;;;;5051346;28;19986;-87
2022/11/03 09:42:53;;;;;;;;;;;18.00;85.70;;;;;;5050124;28;19950;-86
2022/11/03 09:45:19;;;;;;;;;;;18.00;84.60;;;;;;5052010;28;19941;-87
2022/11/03 09:47:47;;;;;;;;;;;17.90;84.60;;;;;;5050684;28;20002;-87
2022/11/03 09:50:15;;;;;;;;;;;18.00;84.40;;;;;;5049635;28;19943;-87
2022/11/03 09:52:40;;;;;;;;;;;18.00;84.90;;;;;;5049323;28;19994;-87
2022/11/03 09:55:17;;;;;;;;;;;18.00;84.40;;;;;;5046879;28;19980;-87
2022/11/03 09:57:44;;;;;;;;;;;17.90;83.70;;;;;;5044622;28;19960;-87
2022/11/03 10:00:18;;;;;;;;;;;17.90;84.70;;;;;;5043283;28;19948;-87
2022/11/03 10:02:44;;;;;;;;;;;17.90;84.50;;;;;;5047151;28;19945;-87
2022/11/03 10:05:12;;;;;;;;;;;17.90;84.60;;;;;;5046623;28;20328;-87
2022/11/03 10:07:37;;;;;;;;;;;17.80;84.40;;;;;;5045713;28;19950;-87
2022/11/03 10:10:03;;;;;;;;;;;17.90;85.00;;;;;;5052783;28;19941;-87
2022/11/03 10:12:30;;;;;;;;;;;17.90;84.20;;;;;;5044962;28;19941;-87
2022/11/03 10:14:58;;;;;;;;;;;17.90;84.40;;;;;;5048722;28;19981;-87
2022/11/03 10:17:25;;;;;;;;;;;18.00;84.50;;;;;;5051434;28;20045;-87
2022/11/03 10:19:52;;;;;;;;;;;18.00;84.40;;;;;;5055403;28;20329;-87
2022/11/03 10:22:21;;;;;;;;;;;18.00;84.20;;;;;;5050110;28;19983;-87
2022/11/03 10:24:46;;;;;;;;;;;18.10;84.50;;;;;;5048451;28;20042;-87
2022/11/03 10:27:19;;;;;;;;;;;18.20;83.80;;;;;;5048338;28;20025;-87
2022/11/03 10:29:45;;;;;;;;;;;18.40;83.90;;;;;;5038886;28;19977;-87
2022/11/03 10:32:27;;;;;;;;;;;18.50;83.40;;;;;;5057723;28;19948;-87
2022/11/03 10:34:53;;;;;;;;;;;18.60;83.00;;;;;;5044407;28;19957;-87
2022/11/03 10:37:22;;;;;;;;;;;18.90;82.00;;;;;;5045820;28;19962;-87
2022/11/03 10:39:48;;;;;;;;;;;19.20;80.50;;;;;;5043913;28;19946;-87
2022/11/03 10:42:19;;;;;;;;;;;19.30;79.50;;;;;;5046799;28;19959;-87
2022/11/03 10:44:44;;;;;;;;;;;19.50;78.80;;;;;;5051813;28;19956;-87
2022/11/03 10:47:21;;;;;;;;;;;19.60;78.60;;;;;;5049228;28;20462;-87
2022/11/03 10:49:46;;;;;;;;;;;19.60;78.50;;;;;;5049457;28;19945;-87
2022/11/03 10:52:25;;;;;;;;;;;19.60;77.40;;;;;;5050558;28;19957;-87
2022/11/03 10:54:52;;;;;;;;;;;19.70;77.50;;;;;;5049475;28;20014;-87
2022/11/03 10:57:18;;;;;;;;;;;19.70;77.50;;;;;;5046311;28;19965;-87
2022/11/03 10:59:45;;;;;;;;;;;19.80;77.60;;;;;;5049970;28;20444;-87
2022/11/03 11:02:17;;;;;;;;;;;19.80;77.10;;;;;;5050638;28;19942;-86
2022/11/03 11:04:43;;;;;;;;;;;19.70;77.40;;;;;;5053422;28;20444;-87
2022/11/03 11:07:18;;;;;;;;;;;19.60;76.90;;;;;;5054788;28;19957;-87
2022/11/03 11:09:43;;;;;;;;;;;19.70;77.10;;;;;;5055608;28;19951;-87
2022/11/03 11:12:12;;;;;;;;;;;19.90;76.80;;;;;;5054542;28;20482;-87
2022/11/03 11:14:49;;;;;;;;;;;20.20;76.40;;;;;;5045276;28;19955;-87
2022/11/03 11:17:53;;;;;;;;;;;20.30;74.80;;;;;;5053094;28;20007;-87
2022/11/03 11:20:30;;;;;;;;;;;20.10;74.90;;;;;;4973184;28;19953;-87
2022/11/03 11:23:15;;;;;;;;;;;20.30;75.30;;;;;;4974264;28;19983;-87
2022/11/03 11:26:00;;;;;;;;;;;20.00;74.50;;;;;;5028345;28;19951;-86
2022/11/03 11:28:26;;;;;;;;;;;19.70;75.50;;;;;;5055357;28;19945;-87
2022/11/03 11:30:51;;;;;;;;;;;19.80;77.30;;;;;;5055081;28;20378;-87
2022/11/03 11:33:21;;;;;;;;;;;19.80;76.50;;;;;;5055470;28;20402;-87
2022/11/03 11:35:47;;;;;;;;;;;19.80;75.50;;;;;;5055422;28;19941;-87
2022/11/03 11:38:31;;;;;;;;;;;19.70;76.70;;;;;;5055260;28;20008;-86
2022/11/03 11:40:57;;;;;;;;;;;19.50;77.40;;;;;;5035309;28;20036;-86
2022/11/03 11:43:24;;;;;;;;;;;19.30;77.40;;;;;;5035310;28;19971;-87
2022/11/03 11:46:08;;;;;;;;;;;19.30;78.40;;;;;;5035313;28;19950;-86
2022/11/03 11:48:34;;;;;;;;;;;19.30;78.60;;;;;;5035227;28;20304;-86
2022/11/03 11:51:01;;;;;;;;;;;19.30;78.60;;;;;;5055398;28;19957;-87
2022/11/03 11:53:28;;;;;;;;;;;19.30;78.50;;;;;;5055097;28;19992;-87
2022/11/03 11:55:54;;;;;;;;;;;19.30;79.20;;;;;;5055342;28;20316;-86
2022/11/03 11:58:25;;;;;;;;;;;19.30;79.90;;;;;;5054980;28;20020;-87
2022/11/03 12:00:52;;;;;;;;;;;19.30;79.10;;;;;;5054708;28;19954;-87
2022/11/03 12:03:22;;;;;;;;;;;19.60;79.00;;;;;;5054922;28;20313;-87
2022/11/03 12:05:49;;;;;;;;;;;19.60;79.00;;;;;;5054891;28;19948;-87
2022/11/03 12:08:18;;;;;;;;;;;19.50;78.10;;;;;;5054841;28;19943;-87
2022/11/03 12:10:54;;;;;;;;;;;19.30;80.60;;;;;;5054392;28;19941;-86
2022/11/03 12:13:39;;;;;;;;;;;19.30;80.90;;;;;;5054527;28;20290;-87
2022/11/03 12:16:05;;;;;;;;;;;19.30;80.90;;;;;;5054660;28;20439;-87
2022/11/03 12:18:39;;;;;;;;;;;19.40;81.30;;;;;;5054550;28;20009;-87
2022/11/03 12:21:06;;;;;;;;;;;19.60;80.20;;;;;;5054852;28;19948;-86
2022/11/03 12:23:36;;;;;;;;;;;19.30;80.50;;;;;;5054011;28;19948;-87
2022/11/03 12:26:04;;;;;;;;;;;19.10;81.20;;;;;;5053762;28;20316;-87
2022/11/03 12:28:34;;;;;;;;;;;18.90;81.30;;;;;;5054317;28;20034;-87
2022/11/03 12:30:59;;;;;;;;;;;18.80;82.50;;;;;;5051969;28;19954;-87
2022/11/03 12:33:26;;;;;;;;;;;18.80;82.90;;;;;;5050532;28;19950;-87
2022/11/03 12:35:52;;;;;;;;;;;18.70;82.70;;;;;;5052560;28;19956;-87
2022/11/03 12:38:17;;;;;;;;;;;18.60;82.70;;;;;;5052294;28;19971;-87
2022/11/03 12:40:43;;;;;;;;;;;18.60;82.80;;;;;;5052201;28;19974;-87
2022/11/03 12:43:08;;;;;;;;;;;18.60;83.20;;;;;;5052085;28;20038;-87
2022/11/03 12:45:34;;;;;;;;;;;18.70;82.90;;;;;;5047802;28;19961;-87
2022/11/03 12:48:00;;;;;;;;;;;18.60;82.60;;;;;;5053930;28;19941;-87
2022/11/03 12:50:25;;;;;;;;;;;18.40;83.20;;;;;;5055854;28;19944;-87
2022/11/03 12:52:51;;;;;;;;;;;18.40;83.80;;;;;;5050528;28;20041;-87
2022/11/03 12:55:16;;;;;;;;;;;18.40;84.00;;;;;;5050663;28;19948;-87
2022/11/03 12:57:44;;;;;;;;;;;18.40;83.50;;;;;;5053088;28;20501;-87
2022/11/03 13:00:11;;;;;;;;;;;18.50;83.40;;;;;;5057030;28;20397;-87
2022/11/03 13:02:36;;;;;;;;;;;18.50;83.50;;;;;;5049817;28;19952;-88
2022/11/03 13:05:03;;;;;;;;;;;18.60;83.40;;;;;;5049960;28;19950;-87
2022/11/03 13:07:28;;;;;;;;;;;18.70;82.70;;;;;;5052889;28;19952;-87
2022/11/03 13:09:54;;;;;;;;;;;18.80;82.00;;;;;;5050607;28;20402;-87
2022/11/03 13:12:31;;;;;;;;;;;18.80;81.20;;;;;;5058867;28;19967;-87
2022/11/03 13:14:57;;;;;;;;;;;19.00;81.20;;;;;;5047551;28;20418;-87
2022/11/03 13:17:23;;;;;;;;;;;19.00;80.00;;;;;;5056936;28;19963;-87
2022/11/03 13:19:49;;;;;;;;;;;18.90;79.60;;;;;;5049806;28;19944;-87
2022/11/03 13:22:14;;;;;;;;;;;18.80;80.00;;;;;;5050909;28;19945;-87
2022/11/03 13:24:40;;;;;;;;;;;18.90;80.40;;;;;;5048164;28;19953;-87
2022/11/03 13:27:05;;;;;;;;;;;19.30;79.20;;;;;;5051319;28;20392;-87
2022/11/03 13:29:31;;;;;;;;;;;19.80;78.60;;;;;;5051354;28;20250;-87
2022/11/03 13:31:56;;;;;;;;;;;20.30;76.10;;;;;;5052598;28;19950;-87
2022/11/03 13:34:22;;;;;;;;;;;20.80;73.80;;;;;;5048741;28;20403;-87
2022/11/03 13:36:47;;;;;;;;;;;21.20;72.90;;;;;;5046893;28;19968;-87
2022/11/03 13:39:13;;;;;;;;;;;21.00;73.30;;;;;;5046757;28;19943;-87
2022/11/03 13:41:38;;;;;;;;;;;20.80;72.70;;;;;;5049763;28;19965;-87
2022/11/03 13:44:04;;;;;;;;;;;20.60;74.40;;;;;;5053486;28;19948;-87
2022/11/03 13:46:29;;;;;;;;;;;20.20;75.90;;;;;;5051186;28;20394;-87
2022/11/03 13:48:55;;;;;;;;;;;19.60;77.80;;;;;;5052793;28;20375;-87
2022/11/03 13:51:20;;;;;;;;;;;19.20;78.70;;;;;;5051938;28;20052;-87
2022/11/03 13:53:46;;;;;;;;;;;18.80;79.50;;;;;;5059228;28;19950;-87
2022/11/03 13:56:12;;;;;;;;;;;18.80;79.80;;;;;;5047679;28;19956;-87
2022/11/03 13:58:37;;;;;;;;;;;18.60;81.10;;;;;;5057619;28;19961;-87
2022/11/03 14:01:03;;;;;;;;;;;18.60;80.60;;;;;;5052142;28;20341;-87
2022/11/03 14:03:29;;;;;;;;;;;18.60;80.40;;;;;;5053900;28;19954;-87
2022/11/03 14:05:54;;;;;;;;;;;18.80;80.90;;;;;;5055307;28;19945;-87
2022/11/03 14:08:20;;;;;;;;;;;18.80;80.70;;;;;;5062056;28;19971;-87
2022/11/03 14:10:46;;;;;;;;;;;18.80;80.90;;;;;;5061990;28;19942;-86
2022/11/03 14:13:11;;;;;;;;;;;18.80;81.00;;;;;;5058883;28;19949;-87
2022/11/03 14:15:37;;;;;;;;;;;18.80;80.80;;;;;;5058514;28;19957;-87
2022/11/03 14:18:02;;;;;;;;;;;18.90;81.00;;;;;;5053782;28;20331;-87
2022/11/03 14:20:28;;;;;;;;;;;18.90;80.70;;;;;;5050105;28;19954;-86
2022/11/03 14:22:53;;;;;;;;;;;18.80;81.70;;;;;;5048353;28;20053;-87
2022/11/03 14:25:19;;;;;;;;;;;18.70;81.70;;;;;;5038925;28;19975;-87
2022/11/03 14:27:45;;;;;;;;;;;18.80;82.20;;;;;;5048727;28;20699;-87
2022/11/03 14:30:11;;;;;;;;;;;18.80;82.10;;;;;;5071212;22;19977;-87
2022/11/03 14:32:37;;;;;;;;;;;18.70;82.30;;;;;;5073279;28;19993;-87
2022/11/03 14:35:03;;;;;;;;;;;18.70;82.30;;;;;;5071602;28;19982;-87
2022/11/03 14:37:28;;;;;;;;;;;18.60;82.40;;;;;;5075019;28;19967;-87